sensor_id;sensor_type;location;lat;lon;timestamp;pressure;altitude;pressure_sealevel;temperature;humidity
57801;BME280;43627;42.728;23.256;2022-09-21T00:03:36;95141.59;;;7.61;100.00
57801;BME280;43627;42.728;23.256;2022-09-21T00:06:04;95147.50;;;7.34;100.00
57801;BME280;43627;42.728;23.256;2022-09-21T00:08:31;95148.91;;;7.26;100.00
57801;BME280;43627;42.728;23.256;2022-09-21T00:10:58;95149.88;;;7.07;100.00
57801;BME280;43627;42.728;23.256;2022-09-21T00:13:26;95138.72;;;7.05;100.00
57801;BME280;43627;42.728;23.256;2022-09-21T00:15:54;95145.44;;;7.00;100.00
57801;BME280;43627;42.728;23.256;2022-09-21T00:18:22;95147.16;;;6.81;100.00
57801;BME280;43627;42.728;23.256;2022-09-21T00:20:49;95149.44;;;6.70;100.00
57801;BME280;43627;42.728;23.256;2022-09-21T00:23:18;95157.13;;;6.59;100.00
57801;BME280;43627;42.728;23.256;2022-09-21T00:25:44;95150.81;;;6.49;100.00
57801;BME280;43627;42.728;23.256;2022-09-21T00:28:11;95135.50;;;6.43;100.00
57801;BME280;43627;42.728;23.256;2022-09-21T00:30:38;95137.94;;;6.24;100.00
57801;BME280;43627;42.728;23.256;2022-09-21T00:33:05;95149.69;;;6.05;100.00
57801;BME280;43627;42.728;23.256;2022-09-21T00:35:32;95139.97;;;6.08;100.00
57801;BME280;43627;42.728;23.256;2022-09-21T00:38:00;95147.28;;;5.94;100.00
57801;BME280;43627;42.728;23.256;2022-09-21T00:40:28;95146.34;;;5.85;100.00
57801;BME280;43627;42.728;23.256;2022-09-21T00:43:16;95131.41;;;5.80;100.00
57801;BME280;43627;42.728;23.256;2022-09-21T00:45:45;95154.63;;;5.94;100.00
57801;BME280;43627;42.728;23.256;2022-09-21T00:48:13;95151.09;;;5.81;100.00
57801;BME280;43627;42.728;23.256;2022-09-21T00:50:45;95144.31;;;5.89;100.00
57801;BME280;43627;42.728;23.256;2022-09-21T00:53:14;95142.72;;;5.91;100.00
57801;BME280;43627;42.728;23.256;2022-09-21T00:55:48;95146.66;;;5.87;100.00
57801;BME280;43627;42.728;23.256;2022-09-21T00:58:21;95146.94;;;5.92;100.00
57801;BME280;43627;42.728;23.256;2022-09-21T01:00:50;95148.91;;;5.92;100.00
57801;BME280;43627;42.728;23.256;2022-09-21T01:03:17;95148.13;;;5.91;100.00
57801;BME280;43627;42.728;23.256;2022-09-21T01:05:44;95143.38;;;5.95;100.00
57801;BME280;43627;42.728;23.256;2022-09-21T01:08:11;95147.72;;;5.93;100.00
57801;BME280;43627;42.728;23.256;2022-09-21T01:11:13;95149.03;;;6.01;100.00
57801;BME280;43627;42.728;23.256;2022-09-21T01:14:06;95147.19;;;5.98;100.00
57801;BME280;43627;42.728;23.256;2022-09-21T01:25:12;95140.34;;;5.93;100.00
57801;BME280;43627;42.728;23.256;2022-09-21T01:28:26;95133.50;;;5.89;100.00
57801;BME280;43627;42.728;23.256;2022-09-21T01:31:03;95119.88;;;5.92;100.00
57801;BME280;43627;42.728;23.256;2022-09-21T01:33:37;95112.34;;;5.84;100.00
57801;BME280;43627;42.728;23.256;2022-09-21T01:36:09;95119.06;;;5.79;100.00
57801;BME280;43627;42.728;23.256;2022-09-21T01:38:38;95127.69;;;5.58;100.00
57801;BME280;43627;42.728;23.256;2022-09-21T01:41:10;95127.53;;;5.49;100.00
57801;BME280;43627;42.728;23.256;2022-09-21T01:43:47;95122.13;;;5.49;100.00
57801;BME280;43627;42.728;23.256;2022-09-21T01:46:18;95125.53;;;5.53;100.00
57801;BME280;43627;42.728;23.256;2022-09-21T01:48:49;95122.88;;;5.49;100.00
57801;BME280;43627;42.728;23.256;2022-09-21T01:51:19;95128.13;;;5.56;100.00
57801;BME280;43627;42.728;23.256;2022-09-21T01:53:51;95129.16;;;5.62;100.00
57801;BME280;43627;42.728;23.256;2022-09-21T01:56:23;95127.63;;;5.61;100.00
57801;BME280;43627;42.728;23.256;2022-09-21T01:58:55;95125.84;;;5.71;100.00
57801;BME280;43627;42.728;23.256;2022-09-21T02:01:26;95110.34;;;5.71;100.00
57801;BME280;43627;42.728;23.256;2022-09-21T02:04:04;95128.00;;;5.92;100.00
57801;BME280;43627;42.728;23.256;2022-09-21T02:06:34;95110.91;;;5.95;100.00
57801;BME280;43627;42.728;23.256;2022-09-21T02:09:04;95128.75;;;5.93;100.00
57801;BME280;43627;42.728;23.256;2022-09-21T02:11:31;95135.00;;;5.90;100.00
57801;BME280;43627;42.728;23.256;2022-09-21T02:13:57;95125.22;;;5.80;100.00
57801;BME280;43627;42.728;23.256;2022-09-21T02:16:39;95129.44;;;5.81;100.00
57801;BME280;43627;42.728;23.256;2022-09-21T02:19:24;95131.16;;;5.74;100.00
57801;BME280;43627;42.728;23.256;2022-09-21T02:22:01;95125.91;;;5.67;100.00
57801;BME280;43627;42.728;23.256;2022-09-21T02:30:19;95143.31;;;5.66;100.00
57801;BME280;43627;42.728;23.256;2022-09-21T02:33:16;95139.09;;;5.65;100.00
57801;BME280;43627;42.728;23.256;2022-09-21T02:38:36;95133.53;;;5.56;100.00
57801;BME280;43627;42.728;23.256;2022-09-21T02:44:06;95137.78;;;5.25;100.00
57801;BME280;43627;42.728;23.256;2022-09-21T02:49:16;95127.06;;;5.05;100.00
57801;BME280;43627;42.728;23.256;2022-09-21T02:51:48;95136.59;;;5.09;100.00
57801;BME280;43627;42.728;23.256;2022-09-21T02:54:18;95122.50;;;5.18;100.00
57801;BME280;43627;42.728;23.256;2022-09-21T02:56:48;95133.91;;;5.26;100.00
57801;BME280;43627;42.728;23.256;2022-09-21T02:59:17;95135.53;;;5.23;100.00
57801;BME280;43627;42.728;23.256;2022-09-21T03:01:43;95139.22;;;5.29;100.00
57801;BME280;43627;42.728;23.256;2022-09-21T03:04:10;95132.88;;;5.36;100.00
57801;BME280;43627;42.728;23.256;2022-09-21T03:06:37;95138.66;;;5.22;100.00
57801;BME280;43627;42.728;23.256;2022-09-21T03:09:04;95141.16;;;5.29;100.00
57801;BME280;43627;42.728;23.256;2022-09-21T03:11:30;95127.13;;;5.18;100.00
57801;BME280;43627;42.728;23.256;2022-09-21T03:13:57;95137.94;;;5.18;100.00
57801;BME280;43627;42.728;23.256;2022-09-21T03:16:24;95131.38;;;5.02;100.00
57801;BME280;43627;42.728;23.256;2022-09-21T03:18:51;95138.44;;;4.96;100.00
57801;BME280;43627;42.728;23.256;2022-09-21T03:21:18;95136.00;;;4.85;100.00
57801;BME280;43627;42.728;23.256;2022-09-21T03:23:44;95137.94;;;4.85;100.00
57801;BME280;43627;42.728;23.256;2022-09-21T03:26:11;95138.44;;;4.96;100.00
57801;BME280;43627;42.728;23.256;2022-09-21T03:28:37;95142.06;;;4.90;100.00
57801;BME280;43627;42.728;23.256;2022-09-21T03:31:04;95135.16;;;4.88;100.00
57801;BME280;43627;42.728;23.256;2022-09-21T03:33:32;95135.56;;;4.87;100.00
57801;BME280;43627;42.728;23.256;2022-09-21T03:35:58;95137.94;;;4.85;100.00
57801;BME280;43627;42.728;23.256;2022-09-21T03:38:25;95133.91;;;4.93;100.00
57801;BME280;43627;42.728;23.256;2022-09-21T03:40:52;95135.75;;;4.96;100.00
57801;BME280;43627;42.728;23.256;2022-09-21T03:43:23;95149.09;;;5.03;100.00
57801;BME280;43627;42.728;23.256;2022-09-21T03:45:51;95148.69;;;5.05;100.00
57801;BME280;43627;42.728;23.256;2022-09-21T03:48:17;95148.75;;;5.01;100.00
57801;BME280;43627;42.728;23.256;2022-09-21T03:50:44;95137.69;;;4.96;100.00
57801;BME280;43627;42.728;23.256;2022-09-21T03:53:11;95144.28;;;4.95;100.00
57801;BME280;43627;42.728;23.256;2022-09-21T03:55:37;95142.50;;;4.88;100.00
57801;BME280;43627;42.728;23.256;2022-09-21T03:58:04;95154.81;;;4.89;100.00
57801;BME280;43627;42.728;23.256;2022-09-21T04:00:31;95148.75;;;4.85;100.00
57801;BME280;43627;42.728;23.256;2022-09-21T04:02:58;95139.59;;;4.79;100.00
57801;BME280;43627;42.728;23.256;2022-09-21T04:05:25;95133.16;;;4.73;100.00
57801;BME280;43627;42.728;23.256;2022-09-21T04:07:53;95147.56;;;4.86;100.00
57801;BME280;43627;42.728;23.256;2022-09-21T04:10:22;95138.28;;;4.87;100.00
57801;BME280;43627;42.728;23.256;2022-09-21T04:12:56;95145.03;;;4.95;100.00
57801;BME280;43627;42.728;23.256;2022-09-21T04:15:23;95147.59;;;5.02;100.00
57801;BME280;43627;42.728;23.256;2022-09-21T04:17:50;95150.31;;;4.82;100.00
57801;BME280;43627;42.728;23.256;2022-09-21T04:20:19;95154.38;;;4.74;100.00
57801;BME280;43627;42.728;23.256;2022-09-21T04:22:46;95148.75;;;4.85;100.00
57801;BME280;43627;42.728;23.256;2022-09-21T04:25:13;95144.63;;;4.97;100.00
57801;BME280;43627;42.728;23.256;2022-09-21T04:27:41;95144.63;;;5.13;100.00
57801;BME280;43627;42.728;23.256;2022-09-21T04:30:09;95144.38;;;5.24;100.00
57801;BME280;43627;42.728;23.256;2022-09-21T04:32:36;95152.56;;;5.36;100.00
57801;BME280;43627;42.728;23.256;2022-09-21T04:35:03;95157.31;;;5.32;100.00
57801;BME280;43627;42.728;23.256;2022-09-21T04:37:30;95155.44;;;5.45;100.00
57801;BME280;43627;42.728;23.256;2022-09-21T04:39:57;95157.06;;;5.59;100.00
57801;BME280;43627;42.728;23.256;2022-09-21T04:42:23;95163.00;;;5.83;100.00
57801;BME280;43627;42.728;23.256;2022-09-21T04:44:50;95159.63;;;5.95;100.00
57801;BME280;43627;42.728;23.256;2022-09-21T04:47:17;95160.44;;;6.09;100.00
57801;BME280;43627;42.728;23.256;2022-09-21T04:49:44;95161.84;;;6.13;100.00
57801;BME280;43627;42.728;23.256;2022-09-21T04:52:11;95162.00;;;6.22;100.00
57801;BME280;43627;42.728;23.256;2022-09-21T04:54:44;95160.63;;;6.30;100.00
57801;BME280;43627;42.728;23.256;2022-09-21T04:57:11;95166.34;;;6.33;100.00
57801;BME280;43627;42.728;23.256;2022-09-21T04:59:37;95169.78;;;6.20;100.00
57801;BME280;43627;42.728;23.256;2022-09-21T05:02:04;95175.69;;;6.32;100.00
57801;BME280;43627;42.728;23.256;2022-09-21T05:04:31;95170.25;;;6.32;100.00
57801;BME280;43627;42.728;23.256;2022-09-21T05:06:57;95164.53;;;6.42;100.00
57801;BME280;43627;42.728;23.256;2022-09-21T05:09:24;95143.00;;;6.39;100.00
57801;BME280;43627;42.728;23.256;2022-09-21T05:12:09;95173.56;;;6.52;100.00
57801;BME280;43627;42.728;23.256;2022-09-21T05:14:37;95172.50;;;6.62;100.00
57801;BME280;43627;42.728;23.256;2022-09-21T05:17:03;95177.59;;;6.60;100.00
57801;BME280;43627;42.728;23.256;2022-09-21T05:19:30;95175.59;;;7.15;100.00
57801;BME280;43627;42.728;23.256;2022-09-21T05:21:57;95162.88;;;7.50;100.00
57801;BME280;43627;42.728;23.256;2022-09-21T05:24:23;95156.41;;;7.82;100.00
57801;BME280;43627;42.728;23.256;2022-09-21T05:26:50;95180.84;;;8.17;100.00
57801;BME280;43627;42.728;23.256;2022-09-21T05:29:17;95177.75;;;8.27;100.00
57801;BME280;43627;42.728;23.256;2022-09-21T05:32:26;95172.78;;;8.48;100.00
57801;BME280;43627;42.728;23.256;2022-09-21T05:35:17;95174.47;;;8.32;100.00
57801;BME280;43627;42.728;23.256;2022-09-21T05:40:22;95168.50;;;8.38;100.00
57801;BME280;43627;42.728;23.256;2022-09-21T05:42:49;95163.28;;;8.30;100.00
57801;BME280;43627;42.728;23.256;2022-09-21T05:45:17;95167.94;;;8.30;100.00
57801;BME280;43627;42.728;23.256;2022-09-21T05:48:12;95157.25;;;8.14;100.00
57801;BME280;43627;42.728;23.256;2022-09-21T05:50:48;95168.34;;;8.19;100.00
57801;BME280;43627;42.728;23.256;2022-09-21T05:53:44;95173.63;;;8.36;100.00
57801;BME280;43627;42.728;23.256;2022-09-21T06:04:56;95161.91;;;8.48;100.00
57801;BME280;43627;42.728;23.256;2022-09-21T06:07:25;95180.38;;;8.53;100.00
57801;BME280;43627;42.728;23.256;2022-09-21T06:09:51;95177.69;;;8.62;100.00
57801;BME280;43627;42.728;23.256;2022-09-21T06:12:18;95168.84;;;8.71;100.00
57801;BME280;43627;42.728;23.256;2022-09-21T06:14:45;95153.75;;;8.70;100.00
57801;BME280;43627;42.728;23.256;2022-09-21T06:17:11;95162.03;;;8.97;100.00
57801;BME280;43627;42.728;23.256;2022-09-21T06:19:38;95161.47;;;9.02;100.00
57801;BME280;43627;42.728;23.256;2022-09-21T06:22:05;95178.06;;;8.95;100.00
57801;BME280;43627;42.728;23.256;2022-09-21T06:24:31;95179.53;;;9.27;100.00
57801;BME280;43627;42.728;23.256;2022-09-21T06:26:58;95177.66;;;9.46;100.00
57801;BME280;43627;42.728;23.256;2022-09-21T06:29:25;95182.25;;;9.67;100.00
57801;BME280;43627;42.728;23.256;2022-09-21T06:31:51;95183.94;;;9.83;100.00
57801;BME280;43627;42.728;23.256;2022-09-21T06:34:18;95176.09;;;9.94;100.00
57801;BME280;43627;42.728;23.256;2022-09-21T06:36:45;95183.06;;;10.14;100.00
57801;BME280;43627;42.728;23.256;2022-09-21T06:39:11;95166.00;;;10.22;100.00
57801;BME280;43627;42.728;23.256;2022-09-21T06:41:38;95190.19;;;10.20;100.00
57801;BME280;43627;42.728;23.256;2022-09-21T06:44:04;95191.72;;;10.58;100.00
57801;BME280;43627;42.728;23.256;2022-09-21T06:46:31;95183.50;;;10.85;100.00
57801;BME280;43627;42.728;23.256;2022-09-21T06:48:58;95201.97;;;11.09;100.00
57801;BME280;43627;42.728;23.256;2022-09-21T06:51:24;95189.25;;;10.97;98.88
57801;BME280;43627;42.728;23.256;2022-09-21T06:53:55;95203.75;;;11.12;100.00
57801;BME280;43627;42.728;23.256;2022-09-21T06:56:23;95200.41;;;11.17;98.79
57801;BME280;43627;42.728;23.256;2022-09-21T06:58:50;95203.38;;;11.37;97.20
57801;BME280;43627;42.728;23.256;2022-09-21T07:01:18;95203.00;;;11.54;95.39
57801;BME280;43627;42.728;23.256;2022-09-21T07:03:48;95207.44;;;11.42;96.04
57801;BME280;43627;42.728;23.256;2022-09-21T07:06:16;95196.69;;;10.78;100.00
57801;BME280;43627;42.728;23.256;2022-09-21T07:08:44;95198.19;;;10.88;100.00
57801;BME280;43627;42.728;23.256;2022-09-21T07:11:31;95203.38;;;10.77;100.00
57801;BME280;43627;42.728;23.256;2022-09-21T07:13:57;95197.78;;;10.71;100.00
57801;BME280;43627;42.728;23.256;2022-09-21T07:16:25;95186.41;;;10.73;100.00
57801;BME280;43627;42.728;23.256;2022-09-21T07:18:52;95203.13;;;11.17;100.00
57801;BME280;43627;42.728;23.256;2022-09-21T07:21:19;95186.09;;;11.31;100.00
57801;BME280;43627;42.728;23.256;2022-09-21T07:23:45;95210.22;;;11.33;100.00
57801;BME280;43627;42.728;23.256;2022-09-21T07:26:12;95190.44;;;11.47;100.00
57801;BME280;43627;42.728;23.256;2022-09-21T07:28:39;95199.78;;;11.55;100.00
57801;BME280;43627;42.728;23.256;2022-09-21T07:31:13;95198.13;;;11.58;99.93
57801;BME280;43627;42.728;23.256;2022-09-21T07:33:42;95196.88;;;11.68;96.19
57801;BME280;43627;42.728;23.256;2022-09-21T07:36:10;95206.56;;;12.02;98.58
57801;BME280;43627;42.728;23.256;2022-09-21T07:38:40;95209.13;;;12.06;97.87
57801;BME280;43627;42.728;23.256;2022-09-21T07:41:09;95202.19;;;12.19;94.77
57801;BME280;43627;42.728;23.256;2022-09-21T07:43:36;95197.25;;;12.09;91.15
57801;BME280;43627;42.728;23.256;2022-09-21T07:46:10;95203.59;;;11.91;91.62
57801;BME280;43627;42.728;23.256;2022-09-21T07:48:37;95203.00;;;12.35;94.53
57801;BME280;43627;42.728;23.256;2022-09-21T07:51:07;95202.41;;;12.30;87.01
57801;BME280;43627;42.728;23.256;2022-09-21T07:53:37;95204.94;;;11.95;86.47
57801;BME280;43627;42.728;23.256;2022-09-21T07:56:07;95200.56;;;11.89;88.64
57801;BME280;43627;42.728;23.256;2022-09-21T07:58:35;95205.16;;;12.07;90.00
57801;BME280;43627;42.728;23.256;2022-09-21T08:01:20;95200.00;;;12.47;83.95
57801;BME280;43627;42.728;23.256;2022-09-21T08:03:52;95205.25;;;12.36;79.94
57801;BME280;43627;42.728;23.256;2022-09-21T08:06:20;95210.22;;;12.23;79.69
57801;BME280;43627;42.728;23.256;2022-09-21T08:08:46;95205.69;;;11.96;80.51
57801;BME280;43627;42.728;23.256;2022-09-21T08:11:22;95210.41;;;11.95;81.20
57801;BME280;43627;42.728;23.256;2022-09-21T08:13:53;95207.19;;;12.21;80.15
57801;BME280;43627;42.728;23.256;2022-09-21T08:16:20;95188.28;;;12.32;80.81
57801;BME280;43627;42.728;23.256;2022-09-21T08:18:47;95205.16;;;12.84;78.69
57801;BME280;43627;42.728;23.256;2022-09-21T08:21:14;95206.19;;;12.86;72.22
57801;BME280;43627;42.728;23.256;2022-09-21T08:23:40;95199.22;;;12.85;70.33
57801;BME280;43627;42.728;23.256;2022-09-21T08:26:10;95201.09;;;12.65;69.37
57801;BME280;43627;42.728;23.256;2022-09-21T08:28:41;95198.19;;;12.83;71.48
57801;BME280;43627;42.728;23.256;2022-09-21T08:31:09;95177.69;;;12.78;71.20
57801;BME280;43627;42.728;23.256;2022-09-21T08:33:36;95178.19;;;13.21;68.19
57801;BME280;43627;42.728;23.256;2022-09-21T08:36:03;95167.22;;;13.06;68.44
57801;BME280;43627;42.728;23.256;2022-09-21T08:38:35;95182.91;;;13.21;69.08
57801;BME280;43627;42.728;23.256;2022-09-21T08:41:24;95181.38;;;13.34;69.48
57801;BME280;43627;42.728;23.256;2022-09-21T08:44:05;95174.22;;;13.37;66.19
57801;BME280;43627;42.728;23.256;2022-09-21T08:46:35;95172.41;;;13.49;63.92
57801;BME280;43627;42.728;23.256;2022-09-21T08:49:07;95172.88;;;13.47;63.83
57801;BME280;43627;42.728;23.256;2022-09-21T08:51:44;95170.03;;;13.56;67.36
57801;BME280;43627;42.728;23.256;2022-09-21T08:54:26;95166.22;;;13.54;64.13
57801;BME280;43627;42.728;23.256;2022-09-21T08:56:54;95167.41;;;13.18;62.88
57801;BME280;43627;42.728;23.256;2022-09-21T08:59:36;95160.22;;;13.05;64.50
57801;BME280;43627;42.728;23.256;2022-09-21T09:02:16;95169.03;;;13.39;66.03
57801;BME280;43627;42.728;23.256;2022-09-21T09:18:22;95156.09;;;12.66;67.80
57801;BME280;43627;42.728;23.256;2022-09-21T09:21:00;95160.53;;;12.78;68.26
57801;BME280;43627;42.728;23.256;2022-09-21T09:23:37;95148.53;;;13.05;67.08
57801;BME280;43627;42.728;23.256;2022-09-21T09:26:29;95146.63;;;13.40;71.21
57801;BME280;43627;42.728;23.256;2022-09-21T09:29:08;95132.47;;;13.12;62.79
57801;BME280;43627;42.728;23.256;2022-09-21T09:31:37;95143.84;;;12.91;64.46
57801;BME280;43627;42.728;23.256;2022-09-21T09:34:13;95132.31;;;13.01;62.00
57801;BME280;43627;42.728;23.256;2022-09-21T09:36:45;95126.28;;;12.82;60.88
57801;BME280;43627;42.728;23.256;2022-09-21T09:39:29;95127.59;;;12.87;62.42
57801;BME280;43627;42.728;23.256;2022-09-21T09:44:58;95127.88;;;13.04;64.86
57801;BME280;43627;42.728;23.256;2022-09-21T09:50:34;95120.31;;;13.13;67.50
57801;BME280;43627;42.728;23.256;2022-09-21T09:53:12;95124.66;;;13.05;65.77
57801;BME280;43627;42.728;23.256;2022-09-21T09:56:07;95115.56;;;13.14;64.23
57801;BME280;43627;42.728;23.256;2022-09-21T09:58:48;95112.84;;;13.29;61.08
57801;BME280;43627;42.728;23.256;2022-09-21T10:01:38;95115.34;;;13.47;59.91
57801;BME280;43627;42.728;23.256;2022-09-21T10:04:13;95107.09;;;13.27;58.55
57801;BME280;43627;42.728;23.256;2022-09-21T10:06:40;95109.56;;;13.45;59.69
57801;BME280;43627;42.728;23.256;2022-09-21T10:11:45;95094.44;;;13.85;54.24
57801;BME280;43627;42.728;23.256;2022-09-21T10:14:17;95097.16;;;14.05;56.24
57801;BME280;43627;42.728;23.256;2022-09-21T10:16:47;95086.50;;;14.33;53.49
57801;BME280;43627;42.728;23.256;2022-09-21T10:19:22;95087.91;;;13.82;54.38
57801;BME280;43627;42.728;23.256;2022-09-21T10:22:01;95078.50;;;14.09;53.74
57801;BME280;43627;42.728;23.256;2022-09-21T10:24:35;95087.91;;;14.49;52.23
57801;BME280;43627;42.728;23.256;2022-09-21T10:27:09;95081.19;;;15.07;51.64
57801;BME280;43627;42.728;23.256;2022-09-21T10:29:44;95085.06;;;15.64;48.97
57801;BME280;43627;42.728;23.256;2022-09-21T10:34:59;95074.06;;;15.27;47.61
57801;BME280;43627;42.728;23.256;2022-09-21T10:37:30;95074.06;;;14.90;48.70
57801;BME280;43627;42.728;23.256;2022-09-21T10:40:00;95061.47;;;15.14;46.83
57801;BME280;43627;42.728;23.256;2022-09-21T10:42:34;95067.34;;;14.96;46.65
57801;BME280;43627;42.728;23.256;2022-09-21T10:45:20;95075.59;;;14.96;46.78
57801;BME280;43627;42.728;23.256;2022-09-21T10:50:29;95063.16;;;14.69;50.69
57801;BME280;43627;42.728;23.256;2022-09-21T10:53:27;95056.16;;;14.42;49.93
57801;BME280;43627;42.728;23.256;2022-09-21T10:59:10;95063.75;;;14.84;46.27
57801;BME280;43627;42.728;23.256;2022-09-21T11:01:45;95053.28;;;14.83;46.73
57801;BME280;43627;42.728;23.256;2022-09-21T11:07:19;95039.50;;;15.14;44.71
57801;BME280;43627;42.728;23.256;2022-09-21T11:09:53;95049.78;;;15.20;45.46
57801;BME280;43627;42.728;23.256;2022-09-21T11:12:42;95046.81;;;15.23;44.80
57801;BME280;43627;42.728;23.256;2022-09-21T11:18:21;95045.81;;;15.21;46.54
57801;BME280;43627;42.728;23.256;2022-09-21T11:20:54;95056.03;;;14.83;47.50
57801;BME280;43627;42.728;23.256;2022-09-21T11:26:23;95047.94;;;15.05;47.38
57801;BME280;43627;42.728;23.256;2022-09-21T11:39:20;95066.94;;;15.52;49.21
57801;BME280;43627;42.728;23.256;2022-09-21T11:42:02;95045.16;;;15.00;49.13
57801;BME280;43627;42.728;23.256;2022-09-21T11:50:34;95054.84;;;14.95;49.19
57801;BME280;43627;42.728;23.256;2022-09-21T11:53:33;95063.03;;;14.32;52.48
57801;BME280;43627;42.728;23.256;2022-09-21T11:59:05;95069.25;;;14.53;51.64
57801;BME280;43627;42.728;23.256;2022-09-21T12:07:35;95070.28;;;15.24;47.23
57801;BME280;43627;42.728;23.256;2022-09-21T12:15:20;95065.16;;;15.06;47.09
57801;BME280;43627;42.728;23.256;2022-09-21T12:20:50;95068.66;;;14.69;49.09
57801;BME280;43627;42.728;23.256;2022-09-21T12:23:28;95060.97;;;15.10;48.07
57801;BME280;43627;42.728;23.256;2022-09-21T12:26:00;95064.28;;;15.20;46.84
57801;BME280;43627;42.728;23.256;2022-09-21T12:28:38;95071.66;;;15.03;46.56
57801;BME280;43627;42.728;23.256;2022-09-21T12:31:19;95072.91;;;14.70;47.72
57801;BME280;43627;42.728;23.256;2022-09-21T12:33:57;95070.75;;;14.85;47.82
57801;BME280;43627;42.728;23.256;2022-09-21T12:36:30;95079.25;;;14.56;47.62
57801;BME280;43627;42.728;23.256;2022-09-21T12:39:12;95075.94;;;14.78;47.08
57801;BME280;43627;42.728;23.256;2022-09-21T12:41:58;95072.13;;;15.01;47.08
57801;BME280;43627;42.728;23.256;2022-09-21T12:44:35;95066.63;;;15.38;46.15
57801;BME280;43627;42.728;23.256;2022-09-21T12:47:40;95075.19;;;15.46;46.26
57801;BME280;43627;42.728;23.256;2022-09-21T12:50:22;95055.44;;;15.05;46.37
57801;BME280;43627;42.728;23.256;2022-09-21T12:52:52;95061.59;;;15.31;45.59
57801;BME280;43627;42.728;23.256;2022-09-21T12:55:44;95063.94;;;15.50;45.19
57801;BME280;43627;42.728;23.256;2022-09-21T13:00:52;95062.38;;;15.37;45.27
57801;BME280;43627;42.728;23.256;2022-09-21T13:03:48;95058.00;;;15.14;45.84
57801;BME280;43627;42.728;23.256;2022-09-21T13:08:53;95054.22;;;14.74;47.02
57801;BME280;43627;42.728;23.256;2022-09-21T13:11:21;95049.84;;;14.36;47.62
57801;BME280;43627;42.728;23.256;2022-09-21T13:14:03;95053.84;;;14.35;48.07
57801;BME280;43627;42.728;23.256;2022-09-21T13:16:32;95052.72;;;14.47;47.79
57801;BME280;43627;42.728;23.256;2022-09-21T13:21:39;95032.13;;;15.26;46.30
57801;BME280;43627;42.728;23.256;2022-09-21T13:24:24;95043.50;;;15.13;46.19
57801;BME280;43627;42.728;23.256;2022-09-21T13:26:56;95035.19;;;15.02;45.76
57801;BME280;43627;42.728;23.256;2022-09-21T13:29:29;95036.81;;;14.83;46.62
57801;BME280;43627;42.728;23.256;2022-09-21T13:34:38;95025.88;;;14.89;47.89
57801;BME280;43627;42.728;23.256;2022-09-21T13:40:29;95036.91;;;15.85;45.48
57801;BME280;43627;42.728;23.256;2022-09-21T13:42:46;95022.66;;;15.87;45.09
57801;BME280;43627;42.728;23.256;2022-09-21T13:47:49;95036.47;;;15.50;46.13
57801;BME280;43627;42.728;23.256;2022-09-21T13:50:30;95030.66;;;14.94;47.67
57801;BME280;43627;42.728;23.256;2022-09-21T13:53:01;95027.75;;;14.71;48.31
57801;BME280;43627;42.728;23.256;2022-09-21T13:58:03;95040.72;;;14.71;48.83
57801;BME280;43627;42.728;23.256;2022-09-21T14:00:39;95037.56;;;14.83;47.98
57801;BME280;43627;42.728;23.256;2022-09-21T14:03:18;95034.63;;;14.93;47.65
57801;BME280;43627;42.728;23.256;2022-09-21T14:05:59;95023.69;;;14.98;47.07
57801;BME280;43627;42.728;23.256;2022-09-21T14:08:36;95016.22;;;14.67;47.30
57801;BME280;43627;42.728;23.256;2022-09-21T14:11:06;95008.97;;;14.38;48.44
57801;BME280;43627;42.728;23.256;2022-09-21T14:13:40;95018.75;;;14.19;46.12
57801;BME280;43627;42.728;23.256;2022-09-21T14:18:55;95012.19;;;13.85;45.67
57801;BME280;43627;42.728;23.256;2022-09-21T14:21:21;95024.25;;;13.93;46.04
57801;BME280;43627;42.728;23.256;2022-09-21T14:26:49;95025.34;;;13.81;47.20
57801;BME280;43627;42.728;23.256;2022-09-21T14:32:14;95015.78;;;13.70;48.93
57801;BME280;43627;42.728;23.256;2022-09-21T14:34:44;95013.22;;;13.26;50.92
57801;BME280;43627;42.728;23.256;2022-09-21T14:37:22;95014.28;;;13.49;50.96
57801;BME280;43627;42.728;23.256;2022-09-21T14:39:53;95025.22;;;13.49;51.57
57801;BME280;43627;42.728;23.256;2022-09-21T14:42:23;95021.94;;;13.45;51.41
57801;BME280;43627;42.728;23.256;2022-09-21T14:44:57;95012.69;;;13.42;51.24
57801;BME280;43627;42.728;23.256;2022-09-21T14:47:50;95014.94;;;13.24;51.52
57801;BME280;43627;42.728;23.256;2022-09-21T14:50:54;95013.16;;;13.21;52.83
57801;BME280;43627;42.728;23.256;2022-09-21T14:56:36;95031.84;;;13.22;52.09
57801;BME280;43627;42.728;23.256;2022-09-21T15:01:55;95024.31;;;13.17;52.80
57801;BME280;43627;42.728;23.256;2022-09-21T15:10:34;95037.00;;;13.00;51.91
57801;BME280;43627;42.728;23.256;2022-09-21T15:18:25;95030.16;;;13.10;50.78
57801;BME280;43627;42.728;23.256;2022-09-21T15:20:57;95014.06;;;13.32;49.76
57801;BME280;43627;42.728;23.256;2022-09-21T15:23:33;95041.19;;;13.51;49.37
57801;BME280;43627;42.728;23.256;2022-09-21T15:26:07;95043.88;;;13.65;49.48
57801;BME280;43627;42.728;23.256;2022-09-21T15:28:41;95044.59;;;13.86;49.56
57801;BME280;43627;42.728;23.256;2022-09-21T15:31:38;95039.31;;;13.83;49.07
57801;BME280;43627;42.728;23.256;2022-09-21T15:34:08;95038.50;;;13.77;49.87
57801;BME280;43627;42.728;23.256;2022-09-21T15:36:38;95045.91;;;13.70;50.91
57801;BME280;43627;42.728;23.256;2022-09-21T15:39:06;95061.13;;;13.71;49.83
57801;BME280;43627;42.728;23.256;2022-09-21T15:41:45;95063.84;;;13.71;48.53
57801;BME280;43627;42.728;23.256;2022-09-21T15:44:21;95074.75;;;13.66;48.94
57801;BME280;43627;42.728;23.256;2022-09-21T15:46:53;95071.19;;;13.60;48.16
57801;BME280;43627;42.728;23.256;2022-09-21T15:49:27;95056.63;;;13.33;47.66
57801;BME280;43627;42.728;23.256;2022-09-21T15:54:52;95058.34;;;13.16;48.27